Time;durP1;ratioP1;P1;durP2;ratioP2;P2;SDS_P1;SDS_P2;PMS_P1;PMS_P2;Temp;Humidity;BMP_temperature;BMP_pressure;BME280_temperature;BME280_humidity;BME280_pressure;Samples;Min_cycle;Max_cycle;Signal;HPM_P1;HPM_P2
2024/04/14 00:00:03;;;;;;;;;;;24.90;39.60;;;;;;5417648;26;19997;-60
2024/04/14 00:02:30;;;;;;;;;;;24.90;39.60;;;;;;5417727;26;19936;-60
2024/04/14 00:04:57;;;;;;;;;;;24.90;39.60;;;;;;5417475;26;19936;-60
2024/04/14 00:07:24;;;;;;;;;;;24.90;39.60;;;;;;5417609;26;19936;-60
2024/04/14 00:09:51;;;;;;;;;;;24.90;39.50;;;;;;5417574;26;19939;-60
2024/04/14 00:12:19;;;;;;;;;;;24.90;39.60;;;;;;5417377;26;19937;-60
2024/04/14 00:14:46;;;;;;;;;;;24.90;39.50;;;;;;5417353;26;20006;-60
2024/04/14 00:17:13;;;;;;;;;;;24.90;39.60;;;;;;5417502;26;20304;-60
2024/04/14 00:19:40;;;;;;;;;;;24.90;39.60;;;;;;5417184;26;19929;-60
2024/04/14 00:22:07;;;;;;;;;;;24.90;39.60;;;;;;5417347;26;20247;-60
2024/04/14 00:24:34;;;;;;;;;;;24.90;39.60;;;;;;5451665;26;19928;-60
2024/04/14 00:27:02;;;;;;;;;;;24.90;39.60;;;;;;5452925;26;19928;-60
2024/04/14 00:29:29;;;;;;;;;;;24.80;39.60;;;;;;5453075;26;19929;-60
2024/04/14 00:31:56;;;;;;;;;;;24.80;39.60;;;;;;5453206;26;19935;-60
2024/04/14 00:34:23;;;;;;;;;;;24.80;39.60;;;;;;5452942;26;19929;-60
2024/04/14 00:36:50;;;;;;;;;;;24.80;39.70;;;;;;5452674;26;20346;-60
2024/04/14 00:39:17;;;;;;;;;;;24.80;39.70;;;;;;5452810;26;19928;-60
2024/04/14 00:41:44;;;;;;;;;;;24.80;39.70;;;;;;5452865;26;19932;-60
2024/04/14 00:44:11;;;;;;;;;;;24.80;39.70;;;;;;5452825;26;19935;-60
2024/04/14 00:46:38;;;;;;;;;;;24.80;39.70;;;;;;5452981;26;20255;-60
2024/04/14 00:49:05;;;;;;;;;;;24.80;39.70;;;;;;5452239;26;19939;-60
2024/04/14 00:51:33;;;;;;;;;;;24.80;39.80;;;;;;5452794;26;19997;-60
2024/04/14 00:54:00;;;;;;;;;;;24.70;39.80;;;;;;5452612;26;20396;-60
2024/04/14 00:56:27;;;;;;;;;;;24.70;39.80;;;;;;5452673;26;19936;-61
2024/04/14 00:58:54;;;;;;;;;;;24.70;39.90;;;;;;5452541;26;19928;-60
2024/04/14 01:01:21;;;;;;;;;;;24.70;39.90;;;;;;5452559;26;19936;-60
2024/04/14 01:03:50;;;;;;;;;;;24.70;39.90;;;;;;5454096;26;19937;-61
2024/04/14 01:06:17;;;;;;;;;;;24.70;39.90;;;;;;5454554;26;19940;-61
2024/04/14 01:08:44;;;;;;;;;;;24.70;39.90;;;;;;5454271;26;19939;-61
2024/04/14 01:11:11;;;;;;;;;;;24.70;39.90;;;;;;5456022;26;19928;-61
2024/04/14 01:13:39;;;;;;;;;;;24.70;39.90;;;;;;5456117;26;19935;-61
2024/04/14 01:16:06;;;;;;;;;;;24.70;39.90;;;;;;5455970;26;19937;-60
2024/04/14 01:18:33;;;;;;;;;;;24.70;39.90;;;;;;5456115;26;19997;-60
2024/04/14 01:21:00;;;;;;;;;;;24.70;39.90;;;;;;5455912;26;19936;-61
2024/04/14 01:23:27;;;;;;;;;;;24.70;39.90;;;;;;5456032;26;20472;-62
2024/04/14 01:25:57;;;;;;;;;;;24.80;39.90;;;;;;5455923;26;19929;-60
2024/04/14 01:28:24;;;;;;;;;;;24.70;39.90;;;;;;5455887;26;20378;-60
2024/04/14 01:30:51;;;;;;;;;;;24.80;39.90;;;;;;5455482;26;19936;-60
2024/04/14 01:33:19;;;;;;;;;;;24.70;39.90;;;;;;5455976;26;19996;-60
2024/04/14 01:35:46;;;;;;;;;;;24.70;39.90;;;;;;5455933;26;19929;-60
2024/04/14 01:38:14;;;;;;;;;;;24.70;39.90;;;;;;5455833;26;19940;-60
2024/04/14 01:40:52;;;;;;;;;;;24.70;40.00;;;;;;5455796;26;19929;-60
2024/04/14 01:43:19;;;;;;;;;;;24.70;40.00;;;;;;5455711;26;19935;-60
2024/04/14 01:45:46;;;;;;;;;;;24.70;40.00;;;;;;5455521;26;19935;-60
2024/04/14 01:48:13;;;;;;;;;;;24.70;40.00;;;;;;5455437;26;19928;-60
2024/04/14 01:50:40;;;;;;;;;;;24.70;40.00;;;;;;5455558;26;19936;-60
2024/04/14 01:53:07;;;;;;;;;;;24.70;40.00;;;;;;5455285;26;19958;-60
2024/04/14 01:55:34;;;;;;;;;;;24.70;40.10;;;;;;5455512;26;19929;-60
2024/04/14 01:58:01;;;;;;;;;;;24.70;40.10;;;;;;5455504;26;20372;-60
2024/04/14 02:00:28;;;;;;;;;;;24.60;40.00;;;;;;5453529;26;19947;-60
2024/04/14 02:02:56;;;;;;;;;;;24.70;40.10;;;;;;5455486;26;19972;-60
2024/04/14 02:05:23;;;;;;;;;;;24.60;40.00;;;;;;5455334;26;19940;-60
2024/04/14 02:07:51;;;;;;;;;;;24.60;40.10;;;;;;5455187;26;19940;-60
2024/04/14 02:10:18;;;;;;;;;;;24.60;40.10;;;;;;5455391;26;19936;-60
2024/04/14 02:12:45;;;;;;;;;;;24.60;40.10;;;;;;5455251;26;19940;-60
2024/04/14 02:15:13;;;;;;;;;;;24.60;40.10;;;;;;5453925;26;19933;-60
2024/04/14 02:17:40;;;;;;;;;;;24.60;40.20;;;;;;5453582;26;19935;-60
2024/04/14 02:20:10;;;;;;;;;;;24.60;40.20;;;;;;5453416;26;20263;-60
2024/04/14 02:22:38;;;;;;;;;;;24.60;40.20;;;;;;5455121;26;20413;-60
2024/04/14 02:25:05;;;;;;;;;;;24.60;40.20;;;;;;5454991;26;20468;-60
2024/04/14 02:27:32;;;;;;;;;;;24.60;40.20;;;;;;5454981;26;19941;-60
2024/04/14 02:29:59;;;;;;;;;;;24.60;40.10;;;;;;5455007;26;19974;-60
2024/04/14 02:32:26;;;;;;;;;;;24.60;40.10;;;;;;5453426;26;19928;-60
2024/04/14 02:34:53;;;;;;;;;;;24.60;40.00;;;;;;5454709;26;19933;-60
2024/04/14 02:37:20;;;;;;;;;;;24.70;40.10;;;;;;5455706;26;19928;-60
2024/04/14 02:39:47;;;;;;;;;;;24.60;40.00;;;;;;5454854;26;19928;-60
2024/04/14 02:42:14;;;;;;;;;;;24.70;40.10;;;;;;5454755;26;19932;-60
2024/04/14 02:44:41;;;;;;;;;;;24.60;40.10;;;;;;5454822;26;19928;-60
2024/04/14 02:47:08;;;;;;;;;;;24.60;40.10;;;;;;5452883;26;19940;-60
2024/04/14 02:49:35;;;;;;;;;;;24.60;40.10;;;;;;5452770;26;19936;-60
2024/04/14 02:52:02;;;;;;;;;;;24.60;40.70;;;;;;5454818;26;20370;-60
2024/04/14 02:54:29;;;;;;;;;;;24.60;40.10;;;;;;5454602;26;19945;-60
2024/04/14 02:56:57;;;;;;;;;;;24.60;40.20;;;;;;5454495;26;19928;-60
2024/04/14 02:59:24;;;;;;;;;;;24.60;40.20;;;;;;5454625;26;19936;-60
2024/04/14 03:01:51;;;;;;;;;;;24.60;40.10;;;;;;5454639;26;20327;-61
2024/04/14 03:04:18;;;;;;;;;;;24.60;40.20;;;;;;5454415;26;19929;-60
2024/04/14 03:06:49;;;;;;;;;;;24.60;40.20;;;;;;5454474;26;19942;-60
2024/04/14 03:09:16;;;;;;;;;;;24.60;40.20;;;;;;5454400;26;20265;-60
2024/04/14 03:11:44;;;;;;;;;;;24.60;40.20;;;;;;5454322;26;19935;-60
2024/04/14 03:14:11;;;;;;;;;;;24.60;40.20;;;;;;5454364;26;19940;-60
2024/04/14 03:16:38;;;;;;;;;;;24.60;40.20;;;;;;5454359;26;19928;-60
2024/04/14 03:19:05;;;;;;;;;;;24.50;40.20;;;;;;5442078;26;19935;-61
2024/04/14 03:21:32;;;;;;;;;;;24.50;40.20;;;;;;5418373;26;20309;-60
2024/04/14 03:23:59;;;;;;;;;;;24.60;40.30;;;;;;5418371;26;19929;-60
2024/04/14 03:26:26;;;;;;;;;;;24.60;40.30;;;;;;5418090;26;19998;-60
2024/04/14 03:28:54;;;;;;;;;;;24.50;40.30;;;;;;5418165;26;19933;-60
2024/04/14 03:31:21;;;;;;;;;;;24.50;40.30;;;;;;5417964;26;20293;-60
2024/04/14 03:33:48;;;;;;;;;;;24.50;40.30;;;;;;5418212;26;19929;-61
2024/04/14 03:36:15;;;;;;;;;;;24.50;40.30;;;;;;5418125;26;19929;-60
2024/04/14 03:38:42;;;;;;;;;;;24.50;40.40;;;;;;5418148;26;20443;-60
2024/04/14 03:41:09;;;;;;;;;;;24.50;40.30;;;;;;5418035;26;19940;-60
2024/04/14 03:43:36;;;;;;;;;;;24.50;40.30;;;;;;5418208;26;19931;-60
2024/04/14 03:46:04;;;;;;;;;;;24.60;40.30;;;;;;5418057;26;19936;-60
2024/04/14 03:48:31;;;;;;;;;;;24.50;40.30;;;;;;5417685;26;19929;-60
2024/04/14 03:50:58;;;;;;;;;;;24.50;40.30;;;;;;5417735;26;19965;-60
2024/04/14 03:53:25;;;;;;;;;;;24.50;40.30;;;;;;5417725;26;20012;-60
2024/04/14 03:55:52;;;;;;;;;;;24.50;40.80;;;;;;5417828;26;19936;-61
2024/04/14 03:58:19;;;;;;;;;;;24.50;40.30;;;;;;5417876;26;19929;-60
2024/04/14 04:00:46;;;;;;;;;;;24.50;40.30;;;;;;5417573;26;19929;-60
2024/04/14 04:03:13;;;;;;;;;;;24.50;40.30;;;;;;5417790;26;19933;-60
2024/04/14 04:05:40;;;;;;;;;;;24.50;40.30;;;;;;5446169;26;20370;-60
2024/04/14 04:08:08;;;;;;;;;;;24.50;40.30;;;;;;5453337;26;19932;-60
2024/04/14 04:10:35;;;;;;;;;;;24.50;40.30;;;;;;5453301;26;19935;-60
2024/04/14 04:13:02;;;;;;;;;;;24.50;40.80;;;;;;5453362;26;19929;-60
2024/04/14 04:15:29;;;;;;;;;;;24.50;40.30;;;;;;5453233;26;19929;-60
2024/04/14 04:17:56;;;;;;;;;;;24.50;40.30;;;;;;5453388;26;19937;-61
2024/04/14 04:20:23;;;;;;;;;;;24.50;40.30;;;;;;5453485;26;20335;-60
2024/04/14 04:22:50;;;;;;;;;;;24.60;40.30;;;;;;5453123;26;20381;-60
2024/04/14 04:25:17;;;;;;;;;;;24.50;40.20;;;;;;5453127;26;19928;-60
2024/04/14 04:27:44;;;;;;;;;;;24.50;40.20;;;;;;5437862;26;19974;-60
2024/04/14 04:30:12;;;;;;;;;;;24.60;40.30;;;;;;5449830;26;19996;-60
2024/04/14 04:32:39;;;;;;;;;;;24.60;40.30;;;;;;5450592;26;20411;-60
2024/04/14 04:35:06;;;;;;;;;;;24.60;40.20;;;;;;5452812;26;19929;-60
2024/04/14 04:37:33;;;;;;;;;;;24.50;40.20;;;;;;5445260;26;19941;-60
2024/04/14 04:40:00;;;;;;;;;;;24.60;40.20;;;;;;5420139;26;19929;-61
2024/04/14 04:42:27;;;;;;;;;;;24.60;40.20;;;;;;5421550;26;19973;-60
2024/04/14 04:44:54;;;;;;;;;;;24.60;40.10;;;;;;5456163;26;19933;-60
2024/04/14 04:47:21;;;;;;;;;;;24.70;40.00;;;;;;5456301;26;19939;-60
2024/04/14 04:49:48;;;;;;;;;;;24.70;39.90;;;;;;5454439;26;19935;-60
2024/04/14 04:52:15;;;;;;;;;;;24.70;39.80;;;;;;5456511;26;19939;-60
2024/04/14 04:54:42;;;;;;;;;;;24.70;39.70;;;;;;5455970;26;19928;-60
2024/04/14 04:57:09;;;;;;;;;;;24.80;39.70;;;;;;5456342;26;19928;-60
2024/04/14 04:59:36;;;;;;;;;;;24.80;39.60;;;;;;5456203;26;19944;-60
2024/04/14 05:02:04;;;;;;;;;;;24.80;40.10;;;;;;5456445;26;19929;-61
2024/04/14 05:04:31;;;;;;;;;;;24.80;39.50;;;;;;5455521;26;19952;-60
2024/04/14 05:06:58;;;;;;;;;;;24.80;39.50;;;;;;5420215;26;19953;-60
2024/04/14 05:09:25;;;;;;;;;;;24.80;39.50;;;;;;5420187;26;19928;-60
2024/04/14 05:11:52;;;;;;;;;;;24.90;39.50;;;;;;5420147;26;19928;-60
2024/04/14 05:14:22;;;;;;;;;;;24.80;39.50;;;;;;5446843;26;19997;-60
2024/04/14 05:16:49;;;;;;;;;;;24.90;39.50;;;;;;5454435;26;19998;-60
2024/04/14 05:19:16;;;;;;;;;;;24.80;39.50;;;;;;5455986;26;19940;-60
2024/04/14 05:21:43;;;;;;;;;;;24.90;39.50;;;;;;5456045;26;19936;-60
2024/04/14 05:24:11;;;;;;;;;;;24.90;39.60;;;;;;5455933;26;19928;-60
2024/04/14 05:26:38;;;;;;;;;;;24.90;39.60;;;;;;5455769;26;20319;-60
2024/04/14 05:29:05;;;;;;;;;;;24.90;39.60;;;;;;5455697;26;19974;-60
2024/04/14 05:31:32;;;;;;;;;;;24.90;39.60;;;;;;5455946;26;19932;-60
2024/04/14 05:33:59;;;;;;;;;;;24.90;39.60;;;;;;5455495;26;20319;-60
2024/04/14 05:36:26;;;;;;;;;;;24.90;39.60;;;;;;5455952;26;19928;-60
2024/04/14 05:38:53;;;;;;;;;;;24.90;39.60;;;;;;5455828;26;19932;-60
2024/04/14 05:41:20;;;;;;;;;;;25.00;39.60;;;;;;5455500;26;19932;-60
2024/04/14 05:43:47;;;;;;;;;;;24.90;39.60;;;;;;5454124;26;19940;-60
2024/04/14 05:46:14;;;;;;;;;;;25.00;39.60;;;;;;5450750;26;19928;-60
2024/04/14 05:48:41;;;;;;;;;;;25.00;39.60;;;;;;5452385;26;19929;-60
2024/04/14 05:51:08;;;;;;;;;;;25.00;39.60;;;;;;5454027;26;19939;-60
2024/04/14 05:53:35;;;;;;;;;;;25.00;39.70;;;;;;5455630;26;19928;-60
2024/04/14 05:56:02;;;;;;;;;;;25.00;39.70;;;;;;5455255;26;19929;-60
2024/04/14 05:58:29;;;;;;;;;;;25.00;39.70;;;;;;5455519;26;20289;-60
2024/04/14 06:00:57;;;;;;;;;;;25.10;39.70;;;;;;5455377;26;20258;-60
2024/04/14 06:03:27;;;;;;;;;;;25.10;39.70;;;;;;5455286;26;19929;-60
2024/04/14 06:05:54;;;;;;;;;;;25.10;39.60;;;;;;5453668;26;20376;-60
2024/04/14 06:08:21;;;;;;;;;;;25.20;39.70;;;;;;5453746;26;19929;-60
2024/04/14 06:10:48;;;;;;;;;;;25.20;39.60;;;;;;5455214;26;19928;-60
2024/04/14 06:13:15;;;;;;;;;;;25.20;39.60;;;;;;5455253;26;19936;-61
2024/04/14 06:15:45;;;;;;;;;;;25.30;39.70;;;;;;5455080;26;19997;-60
2024/04/14 06:18:15;;;;;;;;;;;25.30;39.70;;;;;;5455194;26;20389;-60
2024/04/14 06:20:43;;;;;;;;;;;25.30;39.70;;;;;;5455023;26;19936;-60
2024/04/14 06:23:12;;;;;;;;;;;25.30;39.70;;;;;;5453276;26;19936;-60
2024/04/14 06:25:39;;;;;;;;;;;25.30;39.60;;;;;;5455122;26;19932;-60
2024/04/14 06:28:06;;;;;;;;;;;25.40;39.70;;;;;;5455092;26;19940;-60
2024/04/14 06:30:33;;;;;;;;;;;25.40;39.70;;;;;;5454632;26;20245;-60
2024/04/14 06:33:00;;;;;;;;;;;25.40;39.60;;;;;;5454803;26;20433;-60
2024/04/14 06:35:27;;;;;;;;;;;25.40;39.60;;;;;;5454875;26;19933;-60
2024/04/14 06:37:55;;;;;;;;;;;25.40;39.60;;;;;;5454992;26;20300;-60
2024/04/14 06:40:22;;;;;;;;;;;25.50;39.60;;;;;;5453013;26;19935;-60
2024/04/14 06:42:49;;;;;;;;;;;25.50;39.60;;;;;;5454555;26;19929;-60
2024/04/14 06:45:16;;;;;;;;;;;25.50;39.50;;;;;;5452955;26;19937;-60
2024/04/14 06:47:43;;;;;;;;;;;25.60;39.50;;;;;;5454769;26;19936;-60
2024/04/14 06:50:10;;;;;;;;;;;25.60;39.50;;;;;;5454270;26;19938;-60
2024/04/14 06:52:37;;;;;;;;;;;25.60;39.40;;;;;;5454576;26;19965;-60
2024/04/14 06:55:04;;;;;;;;;;;25.70;39.50;;;;;;5454518;26;19935;-60
2024/04/14 06:57:31;;;;;;;;;;;25.70;39.40;;;;;;5453050;26;20302;-60
2024/04/14 06:59:58;;;;;;;;;;;25.70;39.40;;;;;;5454519;26;19928;-60
2024/04/14 07:02:26;;;;;;;;;;;25.70;39.40;;;;;;5452554;26;19928;-61
2024/04/14 07:04:53;;;;;;;;;;;25.70;39.30;;;;;;5449329;26;20359;-60
2024/04/14 07:07:20;;;;;;;;;;;25.70;39.30;;;;;;5409979;26;20254;-60
2024/04/14 07:09:47;;;;;;;;;;;25.80;39.30;;;;;;5443695;26;19928;-59
2024/04/14 07:12:14;;;;;;;;;;;25.80;39.30;;;;;;5452789;26;19932;-60
2024/04/14 07:14:41;;;;;;;;;;;25.80;39.20;;;;;;5454116;26;19928;-60
2024/04/14 07:17:08;;;;;;;;;;;25.90;39.20;;;;;;5454388;26;19929;-60
2024/04/14 07:19:35;;;;;;;;;;;25.90;39.20;;;;;;5453991;26;19937;-60
2024/04/14 07:22:02;;;;;;;;;;;25.90;39.20;;;;;;5454099;26;19936;-60
2024/04/14 07:24:29;;;;;;;;;;;26.00;39.20;;;;;;5454178;26;20266;-60
2024/04/14 07:26:56;;;;;;;;;;;26.00;39.20;;;;;;5454087;26;19928;-60
2024/04/14 07:29:23;;;;;;;;;;;26.00;39.10;;;;;;5454013;26;19929;-60
2024/04/14 07:31:50;;;;;;;;;;;26.00;39.10;;;;;;5452563;26;20008;-60
2024/04/14 07:34:18;;;;;;;;;;;26.10;39.00;;;;;;5453962;26;19929;-60
2024/04/14 07:36:45;;;;;;;;;;;26.10;39.00;;;;;;5453750;26;19960;-60
2024/04/14 07:39:12;;;;;;;;;;;26.10;38.90;;;;;;5453966;26;19996;-60
2024/04/14 07:41:39;;;;;;;;;;;26.10;38.90;;;;;;5454004;26;19928;-60
2024/04/14 07:44:06;;;;;;;;;;;26.10;38.90;;;;;;5453938;26;19997;-60
2024/04/14 07:46:33;;;;;;;;;;;26.10;38.90;;;;;;5454033;26;19937;-60
2024/04/14 07:49:00;;;;;;;;;;;26.20;39.00;;;;;;5453428;26;19929;-60
2024/04/14 07:51:27;;;;;;;;;;;26.20;39.00;;;;;;5453970;26;19935;-60
2024/04/14 07:53:54;;;;;;;;;;;26.20;39.00;;;;;;5453904;26;20331;-60
2024/04/14 07:56:21;;;;;;;;;;;26.20;38.90;;;;;;5453459;26;19929;-60
2024/04/14 07:58:49;;;;;;;;;;;26.20;38.90;;;;;;5453698;26;20251;-60
2024/04/14 08:01:16;;;;;;;;;;;26.30;38.90;;;;;;5453624;26;20291;-60
2024/04/14 08:03:43;;;;;;;;;;;26.30;38.90;;;;;;5453610;26;19940;-60
2024/04/14 08:06:22;;;;;;;;;;;26.30;38.90;;;;;;5453587;26;20296;-60
2024/04/14 08:08:49;;;;;;;;;;;26.40;38.80;;;;;;5453421;26;19979;-60
2024/04/14 08:11:16;;;;;;;;;;;26.40;38.80;;;;;;5453268;26;19930;-60
2024/04/14 08:13:43;;;;;;;;;;;26.40;38.80;;;;;;5454769;26;19928;-60
2024/04/14 08:16:10;;;;;;;;;;;26.40;38.70;;;;;;5456728;26;19928;-60
2024/04/14 08:18:37;;;;;;;;;;;26.40;38.60;;;;;;5456792;26;19977;-60
2024/04/14 08:21:05;;;;;;;;;;;26.50;38.60;;;;;;5456793;26;19929;-60
2024/04/14 08:23:32;;;;;;;;;;;26.50;38.50;;;;;;5457036;26;19936;-60
2024/04/14 08:26:02;;;;;;;;;;;26.60;38.50;;;;;;5456715;26;19928;-60
2024/04/14 08:28:29;;;;;;;;;;;26.60;38.40;;;;;;5456796;26;19940;-60
2024/04/14 08:30:56;;;;;;;;;;;26.70;38.50;;;;;;5454983;26;19936;-60
2024/04/14 08:33:23;;;;;;;;;;;26.70;38.40;;;;;;5456706;26;19952;-60
2024/04/14 08:35:50;;;;;;;;;;;26.70;38.30;;;;;;5456564;26;19960;-60
2024/04/14 08:38:17;;;;;;;;;;;26.70;38.20;;;;;;5456803;26;19928;-60
2024/04/14 08:40:51;;;;;;;;;;;26.80;38.20;;;;;;5456562;26;19936;-60
2024/04/14 08:43:19;;;;;;;;;;;26.90;38.20;;;;;;5456634;26;19929;-60
2024/04/14 08:45:46;;;;;;;;;;;26.90;38.10;;;;;;5456440;26;19938;-60
2024/04/14 08:48:14;;;;;;;;;;;27.00;38.10;;;;;;5456494;26;19943;-60
2024/04/14 08:50:41;;;;;;;;;;;27.00;38.00;;;;;;5456361;26;19928;-61
2024/04/14 08:53:08;;;;;;;;;;;27.00;37.90;;;;;;5456132;26;19935;-60
2024/04/14 08:55:36;;;;;;;;;;;27.00;37.80;;;;;;5456034;26;19928;-60
2024/04/14 08:58:04;;;;;;;;;;;27.10;37.80;;;;;;5456517;26;19929;-60
2024/04/14 09:00:31;;;;;;;;;;;27.10;37.80;;;;;;5456134;26;20269;-60
2024/04/14 09:02:59;;;;;;;;;;;27.10;37.70;;;;;;5456311;26;19928;-60
2024/04/14 09:05:26;;;;;;;;;;;27.20;37.70;;;;;;5456272;26;19936;-60
2024/04/14 09:07:56;;;;;;;;;;;27.20;37.60;;;;;;5456215;26;19928;-60
2024/04/14 09:10:24;;;;;;;;;;;27.20;37.60;;;;;;5456224;26;19940;-60
2024/04/14 09:12:51;;;;;;;;;;;27.20;37.50;;;;;;5456189;26;19928;-60
2024/04/14 09:15:18;;;;;;;;;;;27.30;37.60;;;;;;5455851;26;20369;-63
2024/04/14 09:17:46;;;;;;;;;;;27.30;37.60;;;;;;5456086;26;19932;-61
2024/04/14 09:20:13;;;;;;;;;;;27.30;37.60;;;;;;5456058;26;19960;-61
2024/04/14 09:22:40;;;;;;;;;;;27.30;37.60;;;;;;5455892;26;19935;-63
2024/04/14 09:25:07;;;;;;;;;;;27.30;37.50;;;;;;5455459;26;20289;-61
2024/04/14 09:27:34;;;;;;;;;;;27.30;37.50;;;;;;5454215;26;20377;-63
2024/04/14 09:30:12;;;;;;;;;;;27.30;37.50;;;;;;5455781;26;19935;-61
2024/04/14 09:32:40;;;;;;;;;;;27.40;37.60;;;;;;5455897;26;20374;-60
2024/04/14 09:35:08;;;;;;;;;;;27.40;37.60;;;;;;5455544;26;19928;-60
2024/04/14 09:37:37;;;;;;;;;;;27.30;37.40;;;;;;5455781;26;20398;-60
2024/04/14 09:40:05;;;;;;;;;;;27.40;37.50;;;;;;5455753;26;19935;-60
2024/04/14 09:42:32;;;;;;;;;;;27.40;37.40;;;;;;5423368;26;20266;-60
2024/04/14 09:45:01;;;;;;;;;;;27.40;37.40;;;;;;5419634;26;20320;-60
2024/04/14 09:47:29;;;;;;;;;;;27.40;37.40;;;;;;5419575;26;19929;-60
2024/04/14 09:49:56;;;;;;;;;;;27.40;37.30;;;;;;5419386;26;19936;-60
2024/04/14 09:52:23;;;;;;;;;;;27.50;37.30;;;;;;5419822;26;20306;-60
2024/04/14 09:54:52;;;;;;;;;;;27.50;37.30;;;;;;5419502;26;20266;-60
2024/04/14 09:57:21;;;;;;;;;;;27.50;37.30;;;;;;5419471;26;20277;-60
2024/04/14 09:59:48;;;;;;;;;;;27.60;37.30;;;;;;5419466;26;19928;-60
2024/04/14 10:02:22;;;;;;;;;;;27.60;37.30;;;;;;5419676;26;19941;-60
2024/04/14 10:04:51;;;;;;;;;;;27.60;37.20;;;;;;5418818;26;19941;-60
2024/04/14 10:07:18;;;;;;;;;;;27.60;37.20;;;;;;5419162;26;19928;-60
2024/04/14 10:09:47;;;;;;;;;;;27.60;37.20;;;;;;5419901;26;19936;-60
2024/04/14 10:12:18;;;;;;;;;;;27.70;37.20;;;;;;5419313;26;20366;-60
2024/04/14 10:14:46;;;;;;;;;;;27.70;37.20;;;;;;5388303;26;19929;-60
2024/04/14 10:17:14;;;;;;;;;;;27.70;37.10;;;;;;5419350;26;19936;-60
2024/04/14 10:19:49;;;;;;;;;;;27.80;37.20;;;;;;5419151;26;19929;-60
2024/04/14 10:22:16;;;;;;;;;;;27.80;37.10;;;;;;5419577;26;19941;-60
2024/04/14 10:24:47;;;;;;;;;;;27.80;37.10;;;;;;5419047;26;19967;-60
2024/04/14 10:27:14;;;;;;;;;;;27.80;37.00;;;;;;5419071;26;19929;-60
2024/04/14 10:29:41;;;;;;;;;;;27.80;36.90;;;;;;5419174;26;19940;-60
2024/04/14 10:32:13;;;;;;;;;;;27.90;37.00;;;;;;5419252;26;19936;-60
2024/04/14 10:34:40;;;;;;;;;;;27.90;36.90;;;;;;5417155;26;19929;-60
2024/04/14 10:37:07;;;;;;;;;;;27.90;36.90;;;;;;5417876;26;20374;-60
2024/04/14 10:39:36;;;;;;;;;;;27.90;36.80;;;;;;5419438;26;19929;-60
2024/04/14 10:42:04;;;;;;;;;;;27.90;36.80;;;;;;5419029;26;20283;-60
2024/04/14 10:44:31;;;;;;;;;;;28.00;36.90;;;;;;5418891;26;19929;-60
2024/04/14 10:46:58;;;;;;;;;;;28.00;37.20;;;;;;5452784;26;20267;-60
2024/04/14 10:49:25;;;;;;;;;;;27.90;36.80;;;;;;5454833;26;19947;-60
2024/04/14 10:51:53;;;;;;;;;;;27.90;36.90;;;;;;5454858;26;19929;-60
2024/04/14 10:54:20;;;;;;;;;;;28.00;36.90;;;;;;5454580;26;19929;-60
2024/04/14 10:56:47;;;;;;;;;;;28.00;36.90;;;;;;5454547;26;20417;-60
2024/04/14 10:59:14;;;;;;;;;;;28.00;36.90;;;;;;5454447;26;19937;-60
2024/04/14 11:01:41;;;;;;;;;;;28.00;36.80;;;;;;5454619;26;19928;-60
2024/04/14 11:04:14;;;;;;;;;;;28.00;36.80;;;;;;5454569;26;20273;-60
2024/04/14 11:06:43;;;;;;;;;;;28.10;36.80;;;;;;5454594;26;19932;-60
2024/04/14 11:09:11;;;;;;;;;;;28.10;36.80;;;;;;5454178;26;20419;-60
2024/04/14 11:11:39;;;;;;;;;;;28.00;36.80;;;;;;5454500;26;19936;-60
2024/04/14 11:14:06;;;;;;;;;;;28.10;36.90;;;;;;5454439;26;19936;-60
2024/04/14 11:16:33;;;;;;;;;;;28.10;36.90;;;;;;5454178;26;20389;-62
2024/04/14 11:19:00;;;;;;;;;;;28.10;36.80;;;;;;5454223;26;20374;-60
2024/04/14 11:21:28;;;;;;;;;;;28.10;36.90;;;;;;5454502;26;19932;-60
2024/04/14 11:23:55;;;;;;;;;;;28.10;36.90;;;;;;5452490;26;20402;-60
2024/04/14 11:26:22;;;;;;;;;;;28.10;36.80;;;;;;5454186;26;20381;-60
2024/04/14 11:28:49;;;;;;;;;;;28.10;36.80;;;;;;5454101;26;19928;-60
2024/04/14 11:31:16;;;;;;;;;;;28.10;36.80;;;;;;5453974;26;19960;-60
2024/04/14 11:33:51;;;;;;;;;;;28.10;36.80;;;;;;5454242;26;19928;-60
2024/04/14 11:36:18;;;;;;;;;;;28.20;36.90;;;;;;5453908;26;19937;-60
2024/04/14 11:38:49;;;;;;;;;;;28.20;36.80;;;;;;5454570;26;19929;-60
2024/04/14 11:41:16;;;;;;;;;;;28.20;36.80;;;;;;5428002;26;19928;-60
2024/04/14 11:43:43;;;;;;;;;;;28.20;36.80;;;;;;5418036;26;19929;-60
2024/04/14 11:46:10;;;;;;;;;;;28.20;36.80;;;;;;5417977;26;19936;-60
2024/04/14 11:48:37;;;;;;;;;;;28.20;36.80;;;;;;5417914;26;19936;-60
2024/04/14 11:51:04;;;;;;;;;;;28.20;36.80;;;;;;5417650;26;20377;-60
2024/04/14 11:53:31;;;;;;;;;;;28.20;36.80;;;;;;5417966;26;20374;-60
2024/04/14 11:55:58;;;;;;;;;;;28.20;36.80;;;;;;5417875;26;19941;-60
2024/04/14 11:58:26;;;;;;;;;;;28.20;36.80;;;;;;5417839;26;19936;-60
2024/04/14 12:00:53;;;;;;;;;;;28.20;36.90;;;;;;5417748;26;19962;-60
2024/04/14 12:03:21;;;;;;;;;;;28.20;36.90;;;;;;5424938;26;19928;-60
2024/04/14 12:05:48;;;;;;;;;;;28.20;36.90;;;;;;5453486;26;19933;-60
2024/04/14 12:08:15;;;;;;;;;;;28.20;36.90;;;;;;5453271;26;19941;-60
2024/04/14 12:10:42;;;;;;;;;;;28.20;36.90;;;;;;5453310;26;19936;-60
2024/04/14 12:13:10;;;;;;;;;;;28.20;36.80;;;;;;5453026;26;19928;-60
2024/04/14 12:15:37;;;;;;;;;;;28.10;36.70;;;;;;5453326;26;19934;-60
2024/04/14 12:18:04;;;;;;;;;;;28.20;36.80;;;;;;5453602;26;20438;-60
2024/04/14 12:20:36;;;;;;;;;;;28.20;36.70;;;;;;5453292;26;19933;-60
2024/04/14 12:23:03;;;;;;;;;;;28.30;36.80;;;;;;5453349;26;20271;-60
2024/04/14 12:25:30;;;;;;;;;;;28.30;36.70;;;;;;5453261;26;19928;-60
2024/04/14 12:27:57;;;;;;;;;;;28.20;36.70;;;;;;5453115;26;19929;-60
2024/04/14 12:30:24;;;;;;;;;;;28.30;36.80;;;;;;5453390;26;20315;-60
2024/04/14 12:33:05;;;;;;;;;;;28.30;36.70;;;;;;5451652;26;19957;-60
2024/04/14 12:35:33;;;;;;;;;;;28.30;36.80;;;;;;5452755;26;20374;-60
2024/04/14 12:38:00;;;;;;;;;;;28.30;36.80;;;;;;5453157;26;19928;-60
2024/04/14 12:40:27;;;;;;;;;;;28.30;36.80;;;;;;5453011;26;19929;-60
2024/04/14 12:42:54;;;;;;;;;;;28.30;36.70;;;;;;5452957;26;19936;-60
2024/04/14 12:45:21;;;;;;;;;;;28.30;36.70;;;;;;5452878;26;19940;-60
2024/04/14 12:47:48;;;;;;;;;;;28.30;36.70;;;;;;5452782;26;19997;-60
2024/04/14 12:50:18;;;;;;;;;;;28.30;36.80;;;;;;5452676;26;19956;-60
2024/04/14 12:52:58;;;;;;;;;;;28.30;36.80;;;;;;5452903;26;20385;-59
2024/04/14 12:55:25;;;;;;;;;;;28.30;36.70;;;;;;5452629;26;20405;-60
2024/04/14 12:57:52;;;;;;;;;;;28.30;36.80;;;;;;5452806;26;19932;-60
2024/04/14 13:00:19;;;;;;;;;;;28.30;36.80;;;;;;5454757;26;20029;-60
2024/04/14 13:02:46;;;;;;;;;;;28.30;36.80;;;;;;5454521;26;19936;-60
2024/04/14 13:05:13;;;;;;;;;;;28.30;36.80;;;;;;5456260;26;19929;-60
2024/04/14 13:07:40;;;;;;;;;;;28.30;36.80;;;;;;5456110;26;19928;-60
2024/04/14 13:10:07;;;;;;;;;;;28.30;36.80;;;;;;5456192;26;19928;-60
2024/04/14 13:12:34;;;;;;;;;;;28.30;36.80;;;;;;5456290;26;19997;-60
2024/04/14 13:15:01;;;;;;;;;;;28.30;36.80;;;;;;5456111;26;19936;-60
2024/04/14 13:17:28;;;;;;;;;;;28.30;36.80;;;;;;5455807;26;19929;-60
2024/04/14 13:19:55;;;;;;;;;;;28.30;36.80;;;;;;5454569;26;20266;-60
2024/04/14 13:22:22;;;;;;;;;;;28.20;36.70;;;;;;5456150;26;19935;-61
2024/04/14 13:24:49;;;;;;;;;;;28.30;36.80;;;;;;5455771;26;19932;-60
2024/04/14 13:27:16;;;;;;;;;;;28.30;36.70;;;;;;5455826;26;19928;-60
2024/04/14 13:29:43;;;;;;;;;;;28.30;36.70;;;;;;5456008;26;19933;-60
2024/04/14 13:32:10;;;;;;;;;;;28.30;36.70;;;;;;5455793;26;19935;-60
2024/04/14 13:34:37;;;;;;;;;;;28.30;36.60;;;;;;5455786;26;19940;-60
2024/04/14 13:37:05;;;;;;;;;;;28.30;36.60;;;;;;5455724;26;19943;-60
2024/04/14 13:39:32;;;;;;;;;;;28.30;36.60;;;;;;5453514;26;20373;-60
2024/04/14 13:41:59;;;;;;;;;;;28.30;36.60;;;;;;5419911;26;19936;-60
2024/04/14 13:44:26;;;;;;;;;;;28.30;36.50;;;;;;5420001;26;19933;-61
2024/04/14 13:46:53;;;;;;;;;;;28.40;36.60;;;;;;5419789;26;20262;-60
2024/04/14 13:49:20;;;;;;;;;;;28.30;36.50;;;;;;5417951;26;20315;-60
2024/04/14 13:51:47;;;;;;;;;;;28.30;36.50;;;;;;5418923;26;19933;-60
2024/04/14 13:54:14;;;;;;;;;;;28.30;36.50;;;;;;5419593;26;19936;-60
2024/04/14 13:56:41;;;;;;;;;;;28.40;36.60;;;;;;5419484;26;19929;-60
2024/04/14 13:59:08;;;;;;;;;;;28.40;36.60;;;;;;5419444;26;19929;-59
2024/04/14 14:01:35;;;;;;;;;;;28.40;36.60;;;;;;5419656;26;19929;-60
2024/04/14 14:04:02;;;;;;;;;;;28.40;36.60;;;;;;5419469;26;19929;-60
2024/04/14 14:06:30;;;;;;;;;;;28.40;36.60;;;;;;5419468;26;19929;-60
2024/04/14 14:08:57;;;;;;;;;;;28.40;36.60;;;;;;5419501;26;19941;-60
2024/04/14 14:11:24;;;;;;;;;;;28.30;36.50;;;;;;5417855;26;19939;-60
2024/04/14 14:13:51;;;;;;;;;;;28.40;36.60;;;;;;5419488;26;20257;-60
2024/04/14 14:16:18;;;;;;;;;;;28.40;36.60;;;;;;5419239;26;20266;-60